sensor_id;sensor_type;location;lat;lon;timestamp;pressure;altitude;pressure_sealevel;temperature
38249;BMP280;24045;51.138;17.126;2023-08-06T00:11:51;99223.60;;;16.07
38249;BMP280;24045;51.138;17.126;2023-08-06T00:26:54;99196.84;;;16.07
38249;BMP280;24045;51.138;17.126;2023-08-06T00:41:57;99181.96;;;16.07
38249;BMP280;24045;51.138;17.126;2023-08-06T00:57:01;99155.18;;;16.10
38249;BMP280;24045;51.138;17.126;2023-08-06T01:27:48;99056.87;;;15.99
38249;BMP280;24045;51.138;17.126;2023-08-06T01:42:51;99019.13;;;15.90
38249;BMP280;24045;51.138;17.126;2023-08-06T01:57:55;98994.33;;;15.91
38249;BMP280;24045;51.138;17.126;2023-08-06T02:29:33;98953.82;;;15.76
38249;BMP280;24045;51.138;17.126;2023-08-06T02:44:36;98908.39;;;15.64
38249;BMP280;24045;51.138;17.126;2023-08-06T02:59:38;98849.75;;;15.51
38249;BMP280;24045;51.138;17.126;2023-08-06T03:14:41;98852.11;;;15.46
38249;BMP280;24045;51.138;17.126;2023-08-06T03:29:44;98850.77;;;15.42
38249;BMP280;24045;51.138;17.126;2023-08-06T03:44:47;98847.33;;;15.36
38249;BMP280;24045;51.138;17.126;2023-08-06T03:59:50;98825.83;;;15.31
38249;BMP280;24045;51.138;17.126;2023-08-06T04:14:58;98812.83;;;15.21
38249;BMP280;24045;51.138;17.126;2023-08-06T04:30:01;98831.67;;;15.15
38249;BMP280;24045;51.138;17.126;2023-08-06T04:45:04;98829.57;;;15.11
38249;BMP280;24045;51.138;17.126;2023-08-06T05:00:08;98807.34;;;15.05
38249;BMP280;24045;51.138;17.126;2023-08-06T05:15:10;98793.08;;;15.01
38249;BMP280;24045;51.138;17.126;2023-08-06T05:30:13;98782.16;;;15.00
38249;BMP280;24045;51.138;17.126;2023-08-06T05:45:16;98765.40;;;14.99
38249;BMP280;24045;51.138;17.126;2023-08-06T06:00:20;98772.25;;;15.00
38249;BMP280;24045;51.138;17.126;2023-08-06T06:15:23;98736.58;;;15.00
38249;BMP280;24045;51.138;17.126;2023-08-06T06:30:25;98748.48;;;14.98
38249;BMP280;24045;51.138;17.126;2023-08-06T06:45:32;98785.30;;;15.00
38249;BMP280;24045;51.138;17.126;2023-08-06T07:00:36;98746.73;;;15.00
38249;BMP280;24045;51.138;17.126;2023-08-06T07:15:39;98748.98;;;15.14
38249;BMP280;24045;51.138;17.126;2023-08-06T07:30:43;98731.63;;;15.25
38249;BMP280;24045;51.138;17.126;2023-08-06T07:45:46;98718.17;;;15.23
38249;BMP280;24045;51.138;17.126;2023-08-06T08:00:49;98701.92;;;15.33
38249;BMP280;24045;51.138;17.126;2023-08-06T08:15:57;98703.59;;;15.37
38249;BMP280;24045;51.138;17.126;2023-08-06T08:31:00;98648.05;;;15.40
38249;BMP280;24045;51.138;17.126;2023-08-06T08:46:03;98613.16;;;15.50
38249;BMP280;24045;51.138;17.126;2023-08-06T09:01:08;98629.42;;;15.71
38249;BMP280;24045;51.138;17.126;2023-08-06T09:16:11;98604.71;;;15.75
38249;BMP280;24045;51.138;17.126;2023-08-06T09:31:14;98603.39;;;15.78
38249;BMP280;24045;51.138;17.126;2023-08-06T09:46:17;98609.59;;;15.68
38249;BMP280;24045;51.138;17.126;2023-08-06T10:01:21;98608.55;;;15.60
38249;BMP280;24045;51.138;17.126;2023-08-06T10:16:25;98634.29;;;15.60
38249;BMP280;24045;51.138;17.126;2023-08-06T10:31:54;98619.45;;;15.60
38249;BMP280;24045;51.138;17.126;2023-08-06T10:47:27;98562.60;;;15.69
38249;BMP280;24045;51.138;17.126;2023-08-06T11:02:35;98547.17;;;15.77
38249;BMP280;24045;51.138;17.126;2023-08-06T11:17:40;98522.44;;;15.98
38249;BMP280;24045;51.138;17.126;2023-08-06T11:32:47;98521.05;;;16.21
38249;BMP280;24045;51.138;17.126;2023-08-06T11:47:51;98513.27;;;16.33
38249;BMP280;24045;51.138;17.126;2023-08-06T12:02:58;98518.33;;;16.30
38249;BMP280;24045;51.138;17.126;2023-08-06T12:18:01;98534.12;;;16.15
38249;BMP280;24045;51.138;17.126;2023-08-06T12:33:04;98550.95;;;16.04
38249;BMP280;24045;51.138;17.126;2023-08-06T12:48:07;98571.31;;;16.00
38249;BMP280;24045;51.138;17.126;2023-08-06T13:03:10;98587.10;;;16.01
38249;BMP280;24045;51.138;17.126;2023-08-06T13:18:14;98598.21;;;16.08
38249;BMP280;24045;51.138;17.126;2023-08-06T13:33:17;98617.59;;;16.20
38249;BMP280;24045;51.138;17.126;2023-08-06T13:48:19;98620.61;;;16.20
38249;BMP280;24045;51.138;17.126;2023-08-06T14:03:22;98642.27;;;16.24
38249;BMP280;24045;51.138;17.126;2023-08-06T14:18:25;98659.17;;;16.30
38249;BMP280;24045;51.138;17.126;2023-08-06T14:33:28;98665.90;;;16.11
38249;BMP280;24045;51.138;17.126;2023-08-06T14:48:31;98677.17;;;16.09
38249;BMP280;24045;51.138;17.126;2023-08-06T15:03:34;98693.58;;;16.17
38249;BMP280;24045;51.138;17.126;2023-08-06T15:18:37;98689.95;;;16.23
38249;BMP280;24045;51.138;17.126;2023-08-06T15:33:40;98707.91;;;16.39
38249;BMP280;24045;51.138;17.126;2023-08-06T15:48:43;98723.21;;;16.25
38249;BMP280;24045;51.138;17.126;2023-08-06T16:03:46;98749.02;;;16.14
38249;BMP280;24045;51.138;17.126;2023-08-06T16:18:48;98745.70;;;16.10
38249;BMP280;24045;51.138;17.126;2023-08-06T16:33:51;98762.38;;;15.94
38249;BMP280;24045;51.138;17.126;2023-08-06T16:48:54;98781.05;;;16.14
38249;BMP280;24045;51.138;17.126;2023-08-06T17:03:57;98805.91;;;16.23
38249;BMP280;24045;51.138;17.126;2023-08-06T17:19:00;98807.66;;;16.07
38249;BMP280;24045;51.138;17.126;2023-08-06T17:34:02;98843.27;;;16.00
38249;BMP280;24045;51.138;17.126;2023-08-06T17:49:05;98853.25;;;15.96
38249;BMP280;24045;51.138;17.126;2023-08-06T18:04:08;98833.07;;;15.95
38249;BMP280;24045;51.138;17.126;2023-08-06T18:19:11;98852.09;;;15.84
38249;BMP280;24045;51.138;17.126;2023-08-06T18:34:14;98858.77;;;15.79
38249;BMP280;24045;51.138;17.126;2023-08-06T18:49:17;98880.39;;;15.73
38249;BMP280;24045;51.138;17.126;2023-08-06T19:04:19;98898.46;;;15.73
38249;BMP280;24045;51.138;17.126;2023-08-06T19:19:22;98890.50;;;15.75
38249;BMP280;24045;51.138;17.126;2023-08-06T19:34:25;98891.38;;;15.75
38249;BMP280;24045;51.138;17.126;2023-08-06T19:49:28;98877.87;;;15.71
38249;BMP280;24045;51.138;17.126;2023-08-06T20:04:31;98876.28;;;15.73
38249;BMP280;24045;51.138;17.126;2023-08-06T20:19:34;98884.75;;;15.74
38249;BMP280;24045;51.138;17.126;2023-08-06T20:34:36;98885.92;;;15.71
38249;BMP280;24045;51.138;17.126;2023-08-06T20:49:39;98889.92;;;15.56
38249;BMP280;24045;51.138;17.126;2023-08-06T21:04:42;98905.84;;;15.32
38249;BMP280;24045;51.138;17.126;2023-08-06T21:19:45;98920.92;;;15.21
38249;BMP280;24045;51.138;17.126;2023-08-06T21:34:48;98931.91;;;15.11
38249;BMP280;24045;51.138;17.126;2023-08-06T21:49:50;98937.57;;;15.04
38249;BMP280;24045;51.138;17.126;2023-08-06T22:04:53;98928.18;;;14.92
38249;BMP280;24045;51.138;17.126;2023-08-06T22:19:56;98935.92;;;14.77
38249;BMP280;24045;51.138;17.126;2023-08-06T22:35:00;98918.19;;;14.63
38249;BMP280;24045;51.138;17.126;2023-08-06T22:50:03;98926.02;;;14.52
38249;BMP280;24045;51.138;17.126;2023-08-06T23:05:06;98927.42;;;14.43
38249;BMP280;24045;51.138;17.126;2023-08-06T23:20:09;98924.79;;;14.34
38249;BMP280;24045;51.138;17.126;2023-08-06T23:35:12;98927.17;;;14.26
38249;BMP280;24045;51.138;17.126;2023-08-06T23:50:15;98927.48;;;14.17
